KVEL

Vernal Regional Airport

Vernal, Utah, USA
KVEL 190520Z 1906/2006 VRB04KT P6SM FEW060 FM191100 VRB03KT P6SM FEW080 FM200300 34006KT P6SM SKC
Issued Valid From Valid To
Oct-19 @ 05:20 UTC
(4 hours ago)
Oct-19 @ 06:00 UTC
(4 hours ago)
Oct-20 @ 06:00 UTC
(in 20 hours)
Oct-19 @ 06:00 to Oct-19 @ 11:00
KVEL 190520Z 1906/2006 VRB04KT P6SM FEW060
Wind Visibility Clouds
Variable at 4 knots Greater than 6 miles
  • Few at 6,000' AGL
From Oct-19 @ 11:00 to Oct-20 @ 03:00
FM191100 VRB03KT P6SM FEW080
Wind Visibility Clouds
Variable at 3 knots Greater than 6 miles
  • Few at 8,000' AGL
From Oct-20 @ 03:00 to Oct-20 @ 06:00
FM200300 34006KT P6SM SKC
Wind Visibility Clouds
340° at 6 knots Greater than 6 miles
  • Clear skies
KVEL 190520Z 1906/2006 VRB04KT P6SM FEW060 FM191100 VRB03KT P6SM FEW080 FM200300 34006KT P6SM SKC
Issued Oct-19 @ 05:20 UTC
(4 hours ago)
Valid From Oct-19 @ 06:00 UTC
(4 hours ago)
Valid To Oct-20 @ 06:00 UTC
(in 20 hours)
Oct-19 @ 06:00 - Oct-19 @ 11:00
Wind Visibility
Variable at 4 knots Greater than 6 miles
Clouds
  • Few at 6,000' AGL
From Oct-19 @ 11:00 - Oct-20 @ 03:00
Wind Visibility
Variable at 3 knots Greater than 6 miles
Clouds
  • Few at 8,000' AGL
From Oct-20 @ 03:00 - Oct-20 @ 06:00
Wind Visibility
340° at 6 knots Greater than 6 miles
Clouds
  • Clear skies